Overview Statistics Trail Chart Weather Telemetry Raw packets
 

This is the latest recevied weather packets stored in our database for station/object KG5MMT-12. If no packets are shown the sender has not sent any weather packets the latest 10 day(s).

<< 66 67 68 69 70 71 72 >>
Time Temp. Humidity Pressure Rain* Wind** Luminosity Snow
1788225249 16.67° C 84% 0 hPa 0.25 mm - - -
1788224949 16.67° C 81% 0 hPa 0.25 mm - - -
1788224649 17.22° C 78% 0 hPa 0.25 mm - - -
1788224349 17.78° C 71% 0 hPa 0.25 mm - - -
1788224049 17.78° C 68% 0 hPa 0.25 mm - - -
1788223749 17.78° C 71% 0 hPa 0.25 mm - - -
1788223449 17.78° C 71% 0 hPa 0.25 mm - - -
1788223149 17.78° C 70% 0 hPa 0.25 mm - - -
1788222849 17.22° C 75% 0 hPa 0.51 mm - - -
1788222549 17.22° C 74% 0 hPa 0.76 mm - - -
1788222249 16.67° C 75% 0 hPa 1.02 mm - - -
1788221949 16.11° C 81% 0 hPa 1.02 mm - - -
1788221649 16.11° C 84% 0 hPa 0.76 mm - - -
1788221349 16.11° C 85% 0 hPa 0.76 mm - - -
1788221049 16.11° C 83% 0 hPa 0.76 mm - - -
1788220749 15.56° C 86% 0 hPa 0.76 mm - - -
1788220449 15.56° C 87% 0 hPa 0.76 mm - - -
1788220149 15.56° C 86% 0 hPa 0.76 mm - - -
1788219849 16.11° C 85% 0 hPa 0.76 mm - - -
1788219550 16.67° C 84% 0 hPa 0.76 mm - - -
1788219250 17.78° C 76% 0 hPa 0.51 mm - - -
1788218949 18.33° C 69% 0 hPa 0.25 mm - - -
1788218650 17.78° C 66% 0 hPa 0 mm - - -
1788218350 17.78° C 74% 0 hPa 0 mm - - -
1788218050 17.78° C 75% 0 hPa 0 mm - - -

* Rain latest hour (hover to see other rain measurements)
** Current wind speed in m/s (hover to see current wind gust speed)